Terminal Aerodrome Forecast
Issued by NWS

Home | Current Version | Previous Version | Text Only | Print | Product List | Glossary On
Versions: 1 2 3 4 5 6 7 8 9 10 11 12 13 14 15 16 17
744
FTUS46 KHNX 192320
TAFBFL
TAF
KBFL 192320Z 2000/2024 VRB05KT P6SM VCTS SCT050 BKN090CB
     FM200400 04005KT P6SM OVC050
     FM201000 13015G21KT 6SM -RA BR OVC050
     FM202100 24011KT P6SM VCTS BKN050CB=

USA.gov is the U.S. government's official web portal to all federal, state and local government web resources and services.